createdAt,value
2022-11-12T00:02:34.147Z,80.10
2022-11-12T00:05:21.879Z,80.37
2022-11-12T00:08:10.931Z,80.26
2022-11-12T00:10:58.554Z,80.00
2022-11-12T00:13:46.017Z,80.09
2022-11-12T00:16:33.066Z,80.10
2022-11-12T00:19:20.814Z,80.21
2022-11-12T00:22:09.529Z,80.54
2022-11-12T00:24:56.650Z,80.67
2022-11-12T00:27:44.663Z,80.34
2022-11-12T00:30:32.930Z,80.57
2022-11-12T00:33:20.744Z,80.63
2022-11-12T00:36:10.782Z,80.50
2022-11-12T00:38:58.071Z,81.12
2022-11-12T00:41:45.428Z,81.37
2022-11-12T00:44:32.771Z,81.29
2022-11-12T00:47:20.263Z,81.45
2022-11-12T00:50:10.447Z,81.35
2022-11-12T00:52:57.713Z,81.40
2022-11-12T00:55:45.417Z,81.50
2022-11-12T00:58:34.289Z,81.78
2022-11-12T01:01:22.656Z,81.43
2022-11-12T01:04:11.099Z,81.74
2022-11-12T01:06:58.512Z,81.72
2022-11-12T01:09:46.288Z,82.07
2022-11-12T01:12:34.033Z,81.57
2022-11-12T01:15:21.523Z,81.63
2022-11-12T01:18:10.934Z,81.03
2022-11-12T01:21:06.342Z,80.92
2022-11-12T01:23:54.133Z,80.71
2022-11-12T01:26:41.823Z,81.10
2022-11-12T01:29:29.154Z,81.20
2022-11-12T01:32:16.236Z,81.20
2022-11-12T01:35:04.481Z,80.96
2022-11-12T01:37:52.098Z,81.80
2022-11-12T01:40:40.033Z,80.94
2022-11-12T01:43:27.591Z,80.94
2022-11-12T01:46:20.547Z,81.43
2022-11-12T01:49:10.964Z,81.59
2022-11-12T01:52:01.537Z,81.37
2022-11-12T01:54:52.666Z,80.86
2022-11-12T01:57:43.345Z,80.58
2022-11-12T02:00:30.742Z,81.04
2022-11-12T02:03:23.934Z,81.00
2022-11-12T02:06:14.724Z,81.32
2022-11-12T02:09:02.182Z,81.12
2022-11-12T02:11:49.665Z,81.04
2022-11-12T02:14:37.825Z,80.92
2022-11-12T02:17:25.581Z,80.83
2022-11-12T02:20:15.528Z,80.99
2022-11-12T02:23:03.240Z,81.18
2022-11-12T02:25:51.149Z,81.08
2022-11-12T02:28:38.799Z,81.18
2022-11-12T02:31:26.371Z,81.24
2022-11-12T02:34:13.962Z,81.21
2022-11-12T02:37:01.452Z,81.08
2022-11-12T02:39:48.757Z,80.69
2022-11-12T02:42:36.203Z,80.99
2022-11-12T02:45:23.872Z,80.91
2022-11-12T02:48:24.853Z,80.94
2022-11-12T02:54:35.587Z,81.52
2022-11-12T02:57:23.676Z,82.07
2022-11-12T03:00:14.135Z,81.02
2022-11-12T03:03:01.587Z,80.95
2022-11-12T03:05:57.747Z,81.02
2022-11-12T03:08:45.207Z,81.02
2022-11-12T03:11:32.945Z,81.45
2022-11-12T03:14:20.096Z,81.58
2022-11-12T03:17:07.951Z,81.33
2022-11-12T03:19:55.162Z,81.33
2022-11-12T03:22:41.513Z,81.64
2022-11-12T03:25:29.738Z,81.43
2022-11-12T03:28:17.887Z,81.85
2022-11-12T03:31:05.184Z,81.42
2022-11-12T03:33:52.950Z,81.73
2022-11-12T03:36:40.617Z,81.85
2022-11-12T03:39:28.197Z,82.46
2022-11-12T03:42:15.515Z,82.53
2022-11-12T03:45:02.846Z,82.88
2022-11-12T03:47:55.944Z,82.61
2022-11-12T03:50:43.730Z,83.15
2022-11-12T03:53:30.774Z,82.97
2022-11-12T03:56:17.978Z,83.20
2022-11-12T03:59:06.088Z,83.11
2022-11-12T04:01:53.464Z,83.78
2022-11-12T04:04:58.703Z,84.34
2022-11-12T04:08:04.064Z,84.04
2022-11-12T04:10:52.008Z,83.91
2022-11-12T04:13:41.946Z,83.66
2022-11-12T04:16:47.220Z,83.66
2022-11-12T04:19:52.597Z,83.84
2022-11-12T04:22:39.928Z,83.71
2022-11-12T04:25:44.912Z,83.75
2022-11-12T04:28:32.355Z,83.33
2022-11-12T04:31:20.182Z,83.54
2022-11-12T04:34:27.402Z,83.46
2022-11-12T04:37:14.951Z,83.23
2022-11-12T04:40:03.698Z,83.03
2022-11-12T04:43:08.951Z,82.81
2022-11-12T04:45:57.454Z,82.37
2022-11-12T04:48:44.882Z,82.43
2022-11-12T04:51:49.789Z,82.43
2022-11-12T04:54:37.350Z,82.33
2022-11-12T04:57:24.824Z,82.48
2022-11-12T05:00:14.832Z,82.29
2022-11-12T05:03:02.538Z,82.78
2022-11-12T05:05:49.800Z,82.67
2022-11-12T05:08:37.733Z,82.85
2022-11-12T05:11:25.219Z,82.77
2022-11-12T05:14:13.140Z,82.88
2022-11-12T05:17:00.556Z,83.30
2022-11-12T05:19:47.933Z,83.19
2022-11-12T05:22:45.574Z,83.44
2022-11-12T05:25:24.405Z,83.26
2022-11-12T05:28:11.678Z,82.90
2022-11-12T05:30:59.240Z,83.16
2022-11-12T05:33:46.597Z,82.55
2022-11-12T05:36:34.259Z,82.55
2022-11-12T05:39:21.976Z,82.45
2022-11-12T05:42:13.547Z,82.56
2022-11-12T05:45:00.659Z,82.46
2022-11-12T05:47:49.234Z,82.76
2022-11-12T05:50:45.438Z,82.72
2022-11-12T05:53:25.873Z,82.54
2022-11-12T05:56:13.538Z,82.35
2022-11-12T05:59:01.912Z,82.53
2022-11-12T06:01:49.856Z,82.04
2022-11-12T06:04:37.014Z,82.04
2022-11-12T06:07:24.845Z,82.07
2022-11-12T06:10:20.183Z,81.99
2022-11-12T06:13:03.351Z,81.99
2022-11-12T06:15:51.911Z,82.20
2022-11-12T06:18:39.647Z,81.98
2022-11-12T06:21:27.959Z,82.01
2022-11-12T06:24:16.104Z,81.78
2022-11-12T06:27:03.805Z,81.60
2022-11-12T06:29:51.488Z,81.59
2022-11-12T06:32:38.923Z,81.89
2022-11-12T06:35:26.321Z,81.64
2022-11-12T06:38:13.680Z,81.21
2022-11-12T06:41:01.943Z,81.21
2022-11-12T06:43:49.760Z,81.60
2022-11-12T06:46:37.365Z,81.60
2022-11-12T06:49:25.335Z,81.76
2022-11-12T06:52:16.505Z,81.94
2022-11-12T06:55:02.754Z,81.77
2022-11-12T06:57:54.754Z,81.86
2022-11-12T07:00:42.305Z,81.85
2022-11-12T07:03:29.793Z,82.21
2022-11-12T07:06:20.079Z,81.57
2022-11-12T07:09:08.056Z,81.86
2022-11-12T07:11:55.607Z,81.68
2022-11-12T07:14:42.918Z,81.73
2022-11-12T07:17:31.439Z,81.61
2022-11-12T07:20:19.021Z,81.67
2022-11-12T07:23:06.644Z,81.83
2022-11-12T07:25:59.855Z,81.90
2022-11-12T07:28:48.512Z,81.79
2022-11-12T07:31:36.220Z,81.97
2022-11-12T07:34:24.154Z,81.66
2022-11-12T07:37:11.787Z,81.28
2022-11-12T07:40:00.076Z,81.64
2022-11-12T07:42:47.729Z,81.55
2022-11-12T07:45:35.574Z,81.43
2022-11-12T07:48:22.844Z,81.25
2022-11-12T07:51:15.659Z,81.38
2022-11-12T07:54:03.037Z,81.83
2022-11-12T07:56:50.186Z,81.99
2022-11-12T07:59:41.798Z,81.62
2022-11-12T08:02:26.493Z,82.27
2022-11-12T08:05:17.680Z,82.32
2022-11-12T08:08:03.468Z,81.94
2022-11-12T08:10:59.054Z,81.72
2022-11-12T08:13:46.699Z,81.91
2022-11-12T08:16:34.634Z,81.98
2022-11-12T08:19:21.917Z,81.85
2022-11-12T08:22:11.342Z,83.14
2022-11-12T08:24:58.919Z,82.20
2022-11-12T08:27:46.537Z,81.59
2022-11-12T08:30:34.522Z,81.58
2022-11-12T08:33:22.118Z,80.99
2022-11-12T08:36:13.725Z,80.71
2022-11-12T08:39:01.083Z,80.71
2022-11-12T08:41:48.498Z,80.33
2022-11-12T08:44:35.860Z,79.94
2022-11-12T08:47:23.601Z,79.45
2022-11-12T08:50:12.363Z,78.94
2022-11-12T08:53:08.026Z,78.74
2022-11-12T08:55:56.600Z,78.78
2022-11-12T08:58:44.060Z,78.00
2022-11-12T09:01:32.406Z,77.03
2022-11-12T09:04:19.566Z,76.51
2022-11-12T09:07:09.710Z,76.24
2022-11-12T09:09:56.725Z,76.44
2022-11-12T09:12:44.282Z,75.70
2022-11-12T09:15:39.916Z,75.18
2022-11-12T09:18:21.254Z,74.86
2022-11-12T09:21:09.299Z,74.31
2022-11-12T09:23:56.581Z,72.63
2022-11-12T09:26:43.941Z,72.78
2022-11-12T09:29:31.640Z,72.72
2022-11-12T09:32:19.055Z,70.90
2022-11-12T09:35:08.366Z,71.55
2022-11-12T09:37:55.779Z,70.70
2022-11-12T09:40:48.746Z,70.94
2022-11-12T09:43:42.474Z,69.34
2022-11-12T09:46:47.914Z,69.34
2022-11-12T09:49:41.327Z,69.39
2022-11-12T09:52:30.615Z,68.17
2022-11-12T09:55:20.871Z,68.17
2022-11-12T09:58:16.651Z,67.22
2022-11-12T10:01:10.074Z,66.19
2022-11-12T10:04:11.558Z,66.24
2022-11-12T10:07:18.668Z,65.52
2022-11-12T10:10:18.667Z,65.52
2022-11-12T10:13:25.592Z,65.37
2022-11-12T10:16:42.383Z,65.10
2022-11-12T10:19:41.858Z,65.24
2022-11-12T10:22:43.742Z,65.75
2022-11-12T10:25:33.159Z,65.48
2022-11-12T10:28:39.175Z,64.00
2022-11-12T10:31:26.977Z,64.38
2022-11-12T10:34:22.491Z,64.91
2022-11-12T10:37:21.127Z,63.37
2022-11-12T10:40:40.394Z,63.43
2022-11-12T10:43:27.770Z,64.59
2022-11-12T10:46:21.217Z,61.92
2022-11-12T10:49:17.402Z,61.17
2022-11-12T10:52:07.927Z,61.17
2022-11-12T10:55:19.330Z,61.20
2022-11-12T10:58:22.624Z,60.73
2022-11-12T11:01:18.501Z,60.29
2022-11-12T11:04:11.018Z,62.68
2022-11-12T11:07:24.783Z,61.10
2022-11-12T11:10:17.256Z,60.50
2022-11-12T11:13:13.300Z,60.80
2022-11-12T11:16:06.026Z,61.75
2022-11-12T11:19:02.142Z,58.31
2022-11-12T11:22:00.487Z,59.80
2022-11-12T11:25:05.776Z,59.07
2022-11-12T11:28:02.107Z,58.64
2022-11-12T11:31:07.287Z,57.68
2022-11-12T11:34:18.208Z,59.06
2022-11-12T11:37:08.909Z,56.66
2022-11-12T11:40:07.815Z,57.38
2022-11-12T11:43:07.117Z,55.94
2022-11-12T11:46:05.909Z,54.17
2022-11-12T11:49:24.297Z,54.83
2022-11-12T11:52:32.943Z,54.59
2022-11-12T11:55:42.719Z,54.54
2022-11-12T11:58:59.687Z,54.54
2022-11-12T12:02:02.034Z,54.60
2022-11-12T12:04:53.006Z,53.38
2022-11-12T12:07:52.427Z,53.63
2022-11-12T12:13:43.110Z,53.21
2022-11-12T12:16:51.572Z,52.78
2022-11-12T12:19:51.020Z,54.52
2022-11-12T12:22:41.222Z,53.32
2022-11-12T12:25:34.467Z,53.54
2022-11-12T12:28:25.337Z,51.58
2022-11-12T12:31:16.206Z,51.45
2022-11-12T12:34:23.991Z,50.91
2022-11-12T12:37:22.674Z,51.65
2022-11-12T12:40:31.750Z,51.33
2022-11-12T12:43:24.894Z,52.47
2022-11-12T12:46:15.084Z,52.25
2022-11-12T12:49:05.425Z,50.37
2022-11-12T12:51:55.920Z,50.85
2022-11-12T12:54:54.519Z,50.62
2022-11-12T12:57:42.252Z,50.55
2022-11-12T13:00:35.725Z,50.54
2022-11-12T13:03:43.592Z,51.44
2022-11-12T13:06:48.867Z,51.76
2022-11-12T13:09:36.270Z,51.57
2022-11-12T13:12:27.156Z,51.28
2022-11-12T13:15:16.659Z,51.24
2022-11-12T13:18:06.753Z,51.34
2022-11-12T13:21:15.508Z,51.99
2022-11-12T13:24:11.323Z,50.95
2022-11-12T13:27:00.428Z,50.78
2022-11-12T13:29:49.035Z,49.23
2022-11-12T13:32:44.738Z,49.35
2022-11-12T13:35:37.209Z,49.34
2022-11-12T13:38:24.980Z,49.76
2022-11-12T13:41:22.724Z,49.98
2022-11-12T13:44:14.169Z,50.21
2022-11-12T13:47:01.888Z,50.22
2022-11-12T13:49:49.932Z,51.32
2022-11-12T13:52:40.097Z,50.92
2022-11-12T13:55:27.945Z,51.46
2022-11-12T13:58:33.063Z,51.86
2022-11-12T14:01:23.305Z,52.33
2022-11-12T14:04:23.913Z,51.75
2022-11-12T14:07:32.007Z,52.41
2022-11-12T14:10:36.942Z,51.45
2022-11-12T14:13:46.487Z,51.65
2022-11-12T14:16:51.706Z,51.68
2022-11-12T14:20:03.471Z,51.56
2022-11-12T14:22:51.202Z,52.73
2022-11-12T14:25:50.466Z,52.73
2022-11-12T14:28:39.688Z,52.89
2022-11-12T14:31:27.285Z,53.39
2022-11-12T14:34:22.280Z,53.00
2022-11-12T14:37:12.897Z,53.58
2022-11-12T14:40:00.247Z,53.53
2022-11-12T14:42:48.248Z,53.38
2022-11-12T14:45:35.797Z,53.38
2022-11-12T14:48:23.312Z,54.45
2022-11-12T14:51:14.004Z,53.77
2022-11-12T14:54:10.287Z,51.53
2022-11-12T14:56:59.465Z,52.98
2022-11-12T14:59:46.988Z,54.15
2022-11-12T15:02:53.443Z,54.80
2022-11-12T15:05:24.614Z,55.77
2022-11-12T15:08:12.835Z,56.90
2022-11-12T15:11:24.142Z,57.67
2022-11-12T15:14:14.994Z,58.61
2022-11-12T15:17:04.344Z,58.82
2022-11-12T15:19:51.475Z,59.19
2022-11-12T15:22:39.499Z,59.64
2022-11-12T15:25:30.552Z,59.23
2022-11-12T15:28:25.592Z,59.81
2022-11-12T15:31:21.793Z,60.16
2022-11-12T15:34:30.446Z,60.39
2022-11-12T15:37:25.325Z,60.84
2022-11-12T15:40:22.567Z,61.09
2022-11-12T15:43:16.150Z,61.11
2022-11-12T15:46:03.963Z,61.42
2022-11-12T15:48:55.743Z,61.65
2022-11-12T15:51:40.442Z,62.14
2022-11-12T15:54:27.651Z,62.51
2022-11-12T15:57:21.437Z,62.62
2022-11-12T16:00:17.203Z,63.19
2022-11-12T16:03:21.587Z,63.67
2022-11-12T16:06:13.948Z,63.67
2022-11-12T16:09:01.729Z,64.11
2022-11-12T16:11:51.317Z,64.40
2022-11-12T16:14:38.818Z,64.62
2022-11-12T16:17:26.482Z,65.79
2022-11-12T16:20:17.680Z,65.60
2022-11-12T16:23:05.204Z,65.51
2022-11-12T16:25:52.796Z,65.31
2022-11-12T16:28:40.601Z,65.39
2022-11-12T16:31:28.366Z,65.79
2022-11-12T16:34:15.941Z,66.09
2022-11-12T16:37:03.673Z,66.32
2022-11-12T16:39:51.111Z,66.32
2022-11-12T16:42:40.245Z,65.91
2022-11-12T16:45:30.649Z,66.15
2022-11-12T16:48:23.141Z,65.69
2022-11-12T16:51:20.594Z,65.91
2022-11-12T16:54:07.226Z,66.16
2022-11-12T16:56:54.559Z,66.50
2022-11-12T16:59:41.940Z,66.85
2022-11-12T17:02:29.615Z,67.24
2022-11-12T17:05:20.607Z,66.54
2022-11-12T17:08:10.964Z,67.40
2022-11-12T17:10:58.853Z,67.47
2022-11-12T17:13:46.753Z,67.47
2022-11-12T17:16:34.222Z,67.17
2022-11-12T17:19:21.657Z,67.44
2022-11-12T17:22:11.267Z,67.27
2022-11-12T17:24:58.708Z,67.78
2022-11-12T17:27:46.104Z,67.92
2022-11-12T17:30:33.890Z,68.76
2022-11-12T17:33:21.387Z,68.76
2022-11-12T17:36:14.228Z,69.37
2022-11-12T17:39:01.843Z,69.23
2022-11-12T17:41:50.116Z,68.96
2022-11-12T17:44:37.898Z,69.26
2022-11-12T17:47:25.748Z,69.28
2022-11-12T17:50:14.088Z,69.04
2022-11-12T17:53:01.219Z,69.52
2022-11-12T17:55:48.762Z,69.43
2022-11-12T17:58:36.224Z,69.88
2022-11-12T18:01:26.347Z,69.73
2022-11-12T18:04:13.774Z,70.53
2022-11-12T18:07:01.259Z,71.08
2022-11-12T18:09:48.723Z,71.17
2022-11-12T18:12:36.645Z,70.56
2022-11-12T18:15:24.298Z,72.50
2022-11-12T18:18:11.381Z,72.50
2022-11-12T18:20:59.153Z,73.08
2022-11-12T18:23:46.669Z,73.08
2022-11-12T18:26:34.465Z,72.66
2022-11-12T18:29:21.849Z,72.09
2022-11-12T18:32:11.071Z,72.05
2022-11-12T18:34:58.600Z,73.67
2022-11-12T18:37:46.051Z,74.62
2022-11-12T18:40:33.901Z,74.12
2022-11-12T18:43:21.254Z,74.61
2022-11-12T18:46:12.090Z,74.95
2022-11-12T18:48:59.612Z,74.52
2022-11-12T18:51:47.413Z,75.36
2022-11-12T18:54:34.996Z,75.36
2022-11-12T18:57:22.646Z,74.35
2022-11-12T19:00:12.282Z,75.62
2022-11-12T19:02:59.969Z,74.02
2022-11-12T19:05:48.113Z,74.40
2022-11-12T19:08:36.244Z,74.42
2022-11-12T19:11:23.417Z,74.63
2022-11-12T19:14:12.069Z,75.41
2022-11-12T19:16:59.862Z,74.53
2022-11-12T19:19:47.604Z,75.26
2022-11-12T19:22:34.984Z,74.73
2022-11-12T19:25:22.717Z,75.11
2022-11-12T19:28:11.494Z,75.25
2022-11-12T19:30:59.109Z,74.30
2022-11-12T19:33:47.553Z,75.35
2022-11-12T19:36:35.065Z,74.45
2022-11-12T19:39:22.720Z,74.91
2022-11-12T19:42:11.488Z,74.75
2022-11-12T19:44:59.037Z,74.84
2022-11-12T19:47:47.432Z,75.33
2022-11-12T19:50:36.587Z,75.08
2022-11-12T19:53:23.992Z,74.97
2022-11-12T19:56:14.131Z,75.96
2022-11-12T19:59:02.091Z,76.08
2022-11-12T20:01:49.508Z,75.48
2022-11-12T20:04:37.211Z,76.31
2022-11-12T20:07:25.061Z,76.21
2022-11-12T20:10:14.327Z,75.13
2022-11-12T20:13:03.217Z,75.72
2022-11-12T20:15:50.902Z,75.64
2022-11-12T20:18:38.316Z,76.76
2022-11-12T20:21:26.783Z,76.84
2022-11-12T20:24:14.329Z,76.53
2022-11-12T20:27:01.950Z,76.53
2022-11-12T20:29:49.558Z,76.86
2022-11-12T20:32:37.002Z,75.97
2022-11-12T20:35:24.773Z,76.70
2022-11-12T20:38:12.009Z,76.34
2022-11-12T20:41:02.647Z,78.04
2022-11-12T20:43:55.612Z,77.63
2022-11-12T20:46:43.057Z,77.18
2022-11-12T20:49:30.675Z,76.84
2022-11-12T20:52:18.563Z,78.03
2022-11-12T20:55:07.876Z,78.03
2022-11-12T20:57:55.159Z,77.39
2022-11-12T21:00:42.934Z,77.64
2022-11-12T21:03:30.407Z,77.94
2022-11-12T21:06:21.265Z,76.29
2022-11-12T21:09:08.541Z,77.69
2022-11-12T21:11:55.900Z,76.48
2022-11-12T21:14:49.040Z,76.58
2022-11-12T21:17:32.503Z,77.34
2022-11-12T21:20:19.939Z,77.80
2022-11-12T21:23:07.331Z,77.69
2022-11-12T21:25:55.028Z,77.80
2022-11-12T21:28:42.590Z,77.53
2022-11-12T21:31:30.696Z,76.79
2022-11-12T21:34:18.062Z,76.79
2022-11-12T21:37:05.855Z,76.46
2022-11-12T21:39:53.213Z,77.12
2022-11-12T21:42:46.917Z,76.87
2022-11-12T21:45:34.599Z,76.82
2022-11-12T21:48:22.133Z,77.55
2022-11-12T21:51:13.144Z,77.48
2022-11-12T21:54:04.106Z,78.22
2022-11-12T21:56:51.623Z,78.11
2022-11-12T21:59:39.074Z,79.37
2022-11-12T22:02:26.567Z,79.39
2022-11-12T22:05:15.090Z,78.26
2022-11-12T22:08:02.512Z,77.75
2022-11-12T22:10:49.873Z,77.67
2022-11-12T22:13:38.641Z,78.63
2022-11-12T22:16:29.451Z,78.63
2022-11-12T22:19:16.896Z,78.35
2022-11-12T22:22:06.399Z,78.15
2022-11-12T22:24:53.921Z,78.15
2022-11-12T22:27:41.140Z,78.03
2022-11-12T22:30:29.210Z,77.87
2022-11-12T22:33:16.975Z,78.30
2022-11-12T22:36:09.156Z,77.10
2022-11-12T22:38:56.993Z,77.10
2022-11-12T22:41:44.654Z,77.95
2022-11-12T22:44:32.198Z,78.70
2022-11-12T22:47:18.355Z,78.27
2022-11-12T22:50:07.620Z,78.03
2022-11-12T22:52:56.537Z,78.08
2022-11-12T22:55:44.347Z,78.50
2022-11-12T22:58:33.378Z,78.28
2022-11-12T23:01:32.717Z,79.14
2022-11-12T23:04:20.029Z,79.14
2022-11-12T23:07:07.724Z,78.36
2022-11-12T23:09:55.718Z,78.80
2022-11-12T23:12:43.672Z,79.03
2022-11-12T23:15:31.326Z,78.04
2022-11-12T23:18:18.284Z,78.56
2022-11-12T23:21:11.285Z,78.19
2022-11-12T23:23:59.896Z,78.54
2022-11-12T23:26:47.299Z,78.82
2022-11-12T23:29:34.987Z,78.46
2022-11-12T23:32:22.472Z,78.60
2022-11-12T23:35:11.318Z,78.30
2022-11-12T23:37:58.654Z,78.04
2022-11-12T23:40:57.070Z,78.04
2022-11-12T23:43:45.406Z,77.64
2022-11-12T23:46:33.191Z,77.61
2022-11-12T23:49:20.758Z,77.81
2022-11-12T23:52:09.573Z,77.74
2022-11-12T23:54:57.051Z,78.00
2022-11-12T23:57:44.998Z,78.05
